sensor_id;sensor_type;location;lat;lon;timestamp;temperature;humidity
27544;DHT22;17996;51.056;3.656;2024-01-10T00:01:42;-1.60;99.90
27544;DHT22;17996;51.056;3.656;2024-01-10T00:04:08;-1.60;99.90
27544;DHT22;17996;51.056;3.656;2024-01-10T00:06:34;-1.60;99.90
27544;DHT22;17996;51.056;3.656;2024-01-10T00:08:59;-1.60;99.90
27544;DHT22;17996;51.056;3.656;2024-01-10T00:11:25;-1.60;99.90
27544;DHT22;17996;51.056;3.656;2024-01-10T00:13:51;-1.60;99.90
27544;DHT22;17996;51.056;3.656;2024-01-10T00:16:17;-1.60;99.90
27544;DHT22;17996;51.056;3.656;2024-01-10T00:18:43;-1.60;99.90
27544;DHT22;17996;51.056;3.656;2024-01-10T00:21:09;-1.60;99.90
27544;DHT22;17996;51.056;3.656;2024-01-10T00:23:35;-1.60;99.90
27544;DHT22;17996;51.056;3.656;2024-01-10T00:26:01;-1.60;99.90
27544;DHT22;17996;51.056;3.656;2024-01-10T00:28:27;-1.60;99.90
27544;DHT22;17996;51.056;3.656;2024-01-10T00:30:53;-1.70;99.90
27544;DHT22;17996;51.056;3.656;2024-01-10T00:33:18;-1.70;99.90
27544;DHT22;17996;51.056;3.656;2024-01-10T00:35:44;-1.70;99.90
27544;DHT22;17996;51.056;3.656;2024-01-10T00:38:10;-1.70;99.90
27544;DHT22;17996;51.056;3.656;2024-01-10T00:40:36;-1.70;99.90
27544;DHT22;17996;51.056;3.656;2024-01-10T00:43:02;-1.70;99.90
27544;DHT22;17996;51.056;3.656;2024-01-10T00:45:28;-1.80;99.90
27544;DHT22;17996;51.056;3.656;2024-01-10T00:47:53;-1.70;99.90
27544;DHT22;17996;51.056;3.656;2024-01-10T00:50:19;-1.80;99.90
27544;DHT22;17996;51.056;3.656;2024-01-10T00:52:45;-1.80;99.90
27544;DHT22;17996;51.056;3.656;2024-01-10T00:55:12;-1.80;99.90
27544;DHT22;17996;51.056;3.656;2024-01-10T00:57:38;-1.80;99.90
27544;DHT22;17996;51.056;3.656;2024-01-10T01:00:08;-1.80;99.90
27544;DHT22;17996;51.056;3.656;2024-01-10T01:02:35;-1.80;99.90
27544;DHT22;17996;51.056;3.656;2024-01-10T01:05:01;-1.80;99.90
27544;DHT22;17996;51.056;3.656;2024-01-10T01:07:27;-1.80;99.90
27544;DHT22;17996;51.056;3.656;2024-01-10T01:09:53;-1.90;99.90
27544;DHT22;17996;51.056;3.656;2024-01-10T01:12:18;-1.90;99.90
27544;DHT22;17996;51.056;3.656;2024-01-10T01:14:44;-1.90;99.90
27544;DHT22;17996;51.056;3.656;2024-01-10T01:17:10;-1.90;99.90
27544;DHT22;17996;51.056;3.656;2024-01-10T01:19:36;-1.90;99.90
27544;DHT22;17996;51.056;3.656;2024-01-10T01:22:02;-1.90;99.90
27544;DHT22;17996;51.056;3.656;2024-01-10T01:24:28;-1.90;99.90
27544;DHT22;17996;51.056;3.656;2024-01-10T01:26:53;-1.90;99.90
27544;DHT22;17996;51.056;3.656;2024-01-10T01:29:20;-1.90;99.90
27544;DHT22;17996;51.056;3.656;2024-01-10T01:31:46;-1.90;99.90
27544;DHT22;17996;51.056;3.656;2024-01-10T01:34:12;-2.00;99.90
27544;DHT22;17996;51.056;3.656;2024-01-10T01:36:37;-2.00;99.90
27544;DHT22;17996;51.056;3.656;2024-01-10T01:39:03;-2.00;99.90
27544;DHT22;17996;51.056;3.656;2024-01-10T01:41:29;-2.00;99.90
27544;DHT22;17996;51.056;3.656;2024-01-10T01:43:55;-2.00;99.90
27544;DHT22;17996;51.056;3.656;2024-01-10T01:46:21;-2.00;99.90
27544;DHT22;17996;51.056;3.656;2024-01-10T01:48:48;-2.00;99.90
27544;DHT22;17996;51.056;3.656;2024-01-10T01:51:14;-2.00;99.90
27544;DHT22;17996;51.056;3.656;2024-01-10T01:53:40;-2.00;99.90
27544;DHT22;17996;51.056;3.656;2024-01-10T01:56:08;-2.10;99.90
27544;DHT22;17996;51.056;3.656;2024-01-10T01:58:36;-2.00;99.90
27544;DHT22;17996;51.056;3.656;2024-01-10T02:01:03;-2.00;99.90
27544;DHT22;17996;51.056;3.656;2024-01-10T02:03:31;-2.10;99.90
27544;DHT22;17996;51.056;3.656;2024-01-10T02:05:58;-2.10;99.90
27544;DHT22;17996;51.056;3.656;2024-01-10T02:08:24;-2.10;99.90
27544;DHT22;17996;51.056;3.656;2024-01-10T02:10:50;-2.10;99.90
27544;DHT22;17996;51.056;3.656;2024-01-10T02:13:16;-2.20;99.90
27544;DHT22;17996;51.056;3.656;2024-01-10T02:15:43;-2.10;99.90
27544;DHT22;17996;51.056;3.656;2024-01-10T02:18:09;-2.10;99.90
27544;DHT22;17996;51.056;3.656;2024-01-10T02:20:38;-2.10;99.90
27544;DHT22;17996;51.056;3.656;2024-01-10T02:23:04;-2.10;99.90
27544;DHT22;17996;51.056;3.656;2024-01-10T02:25:29;-2.10;99.90
27544;DHT22;17996;51.056;3.656;2024-01-10T02:27:55;-2.10;99.90
27544;DHT22;17996;51.056;3.656;2024-01-10T02:30:21;-2.10;99.90
27544;DHT22;17996;51.056;3.656;2024-01-10T02:32:46;-2.10;99.90
27544;DHT22;17996;51.056;3.656;2024-01-10T02:35:12;-2.10;99.90
27544;DHT22;17996;51.056;3.656;2024-01-10T02:37:38;-2.10;99.90
27544;DHT22;17996;51.056;3.656;2024-01-10T02:40:04;-2.10;99.90
27544;DHT22;17996;51.056;3.656;2024-01-10T02:42:33;-2.10;99.90
27544;DHT22;17996;51.056;3.656;2024-01-10T02:44:59;-2.10;99.90
27544;DHT22;17996;51.056;3.656;2024-01-10T02:47:25;-2.20;99.90
27544;DHT22;17996;51.056;3.656;2024-01-10T02:49:50;-2.20;99.90
27544;DHT22;17996;51.056;3.656;2024-01-10T02:52:16;-2.20;99.90
27544;DHT22;17996;51.056;3.656;2024-01-10T02:54:42;-2.20;99.90
27544;DHT22;17996;51.056;3.656;2024-01-10T02:57:08;-2.20;99.90
27544;DHT22;17996;51.056;3.656;2024-01-10T02:59:33;-2.20;99.90
27544;DHT22;17996;51.056;3.656;2024-01-10T03:01:59;-2.20;99.90
27544;DHT22;17996;51.056;3.656;2024-01-10T03:04:25;-2.20;99.90
27544;DHT22;17996;51.056;3.656;2024-01-10T03:06:50;-2.20;99.90
27544;DHT22;17996;51.056;3.656;2024-01-10T03:09:16;-2.30;99.90
27544;DHT22;17996;51.056;3.656;2024-01-10T03:11:42;-2.30;99.90
27544;DHT22;17996;51.056;3.656;2024-01-10T03:14:09;-2.30;99.90
27544;DHT22;17996;51.056;3.656;2024-01-10T03:16:36;-2.30;99.90
27544;DHT22;17996;51.056;3.656;2024-01-10T03:19:02;-2.30;99.90
27544;DHT22;17996;51.056;3.656;2024-01-10T03:21:28;-2.30;99.90
27544;DHT22;17996;51.056;3.656;2024-01-10T03:23:56;-2.30;99.90
27544;DHT22;17996;51.056;3.656;2024-01-10T03:26:22;-2.30;99.90
27544;DHT22;17996;51.056;3.656;2024-01-10T03:28:48;-2.30;99.90
27544;DHT22;17996;51.056;3.656;2024-01-10T03:31:14;-2.30;99.90
27544;DHT22;17996;51.056;3.656;2024-01-10T03:33:40;-2.30;99.90
27544;DHT22;17996;51.056;3.656;2024-01-10T03:36:08;-2.30;99.90
27544;DHT22;17996;51.056;3.656;2024-01-10T03:38:34;-2.30;99.90
27544;DHT22;17996;51.056;3.656;2024-01-10T03:41:00;-2.30;99.90
27544;DHT22;17996;51.056;3.656;2024-01-10T03:43:26;-2.30;99.90
27544;DHT22;17996;51.056;3.656;2024-01-10T03:45:51;-2.40;99.90
27544;DHT22;17996;51.056;3.656;2024-01-10T03:48:17;-2.30;99.90
27544;DHT22;17996;51.056;3.656;2024-01-10T03:50:43;-2.40;99.90
27544;DHT22;17996;51.056;3.656;2024-01-10T03:53:08;-2.40;99.90
27544;DHT22;17996;51.056;3.656;2024-01-10T03:55:35;-2.40;99.90
27544;DHT22;17996;51.056;3.656;2024-01-10T03:58:01;-2.40;99.90
27544;DHT22;17996;51.056;3.656;2024-01-10T04:00:27;-2.40;99.90
27544;DHT22;17996;51.056;3.656;2024-01-10T04:02:53;-2.30;99.90
27544;DHT22;17996;51.056;3.656;2024-01-10T04:05:18;-2.40;99.90
27544;DHT22;17996;51.056;3.656;2024-01-10T04:07:46;-2.30;99.90
27544;DHT22;17996;51.056;3.656;2024-01-10T04:10:12;-2.40;99.90
27544;DHT22;17996;51.056;3.656;2024-01-10T04:12:45;-2.40;99.90
27544;DHT22;17996;51.056;3.656;2024-01-10T04:15:11;-2.30;99.90
27544;DHT22;17996;51.056;3.656;2024-01-10T04:17:37;-2.40;99.90
27544;DHT22;17996;51.056;3.656;2024-01-10T04:20:04;-2.40;99.90
27544;DHT22;17996;51.056;3.656;2024-01-10T04:22:30;-2.40;99.90
27544;DHT22;17996;51.056;3.656;2024-01-10T04:25:00;-2.40;99.90
27544;DHT22;17996;51.056;3.656;2024-01-10T04:27:27;-2.30;99.90
27544;DHT22;17996;51.056;3.656;2024-01-10T04:29:53;-2.40;99.90
27544;DHT22;17996;51.056;3.656;2024-01-10T04:32:19;-2.40;99.90
27544;DHT22;17996;51.056;3.656;2024-01-10T04:34:45;-2.40;99.90
27544;DHT22;17996;51.056;3.656;2024-01-10T04:37:10;-2.40;99.90
27544;DHT22;17996;51.056;3.656;2024-01-10T04:39:37;-2.50;99.90
27544;DHT22;17996;51.056;3.656;2024-01-10T04:42:08;-2.50;99.90
27544;DHT22;17996;51.056;3.656;2024-01-10T04:44:36;-2.50;99.90
27544;DHT22;17996;51.056;3.656;2024-01-10T04:47:02;-2.50;99.90
27544;DHT22;17996;51.056;3.656;2024-01-10T04:49:28;-2.40;99.90
27544;DHT22;17996;51.056;3.656;2024-01-10T04:51:54;-2.40;99.90
27544;DHT22;17996;51.056;3.656;2024-01-10T04:54:20;-2.50;99.90
27544;DHT22;17996;51.056;3.656;2024-01-10T04:56:46;-2.50;99.90
27544;DHT22;17996;51.056;3.656;2024-01-10T04:59:12;-2.50;99.90
27544;DHT22;17996;51.056;3.656;2024-01-10T05:01:37;-2.50;99.90
27544;DHT22;17996;51.056;3.656;2024-01-10T05:04:04;-2.50;99.90
27544;DHT22;17996;51.056;3.656;2024-01-10T05:06:30;-2.50;99.90
27544;DHT22;17996;51.056;3.656;2024-01-10T05:08:56;-2.40;99.90
27544;DHT22;17996;51.056;3.656;2024-01-10T05:11:24;-2.50;99.90
27544;DHT22;17996;51.056;3.656;2024-01-10T05:13:51;-2.50;99.90
27544;DHT22;17996;51.056;3.656;2024-01-10T05:16:18;-2.40;99.90
27544;DHT22;17996;51.056;3.656;2024-01-10T05:18:43;-2.40;99.90
27544;DHT22;17996;51.056;3.656;2024-01-10T05:21:09;-2.40;99.90
27544;DHT22;17996;51.056;3.656;2024-01-10T05:23:35;-2.40;99.90
27544;DHT22;17996;51.056;3.656;2024-01-10T05:26:02;-2.40;99.90
27544;DHT22;17996;51.056;3.656;2024-01-10T05:28:28;-2.40;99.90
27544;DHT22;17996;51.056;3.656;2024-01-10T05:30:53;-2.40;99.90
27544;DHT22;17996;51.056;3.656;2024-01-10T05:33:19;-2.40;99.90
27544;DHT22;17996;51.056;3.656;2024-01-10T05:35:45;-2.50;99.90
27544;DHT22;17996;51.056;3.656;2024-01-10T05:38:11;-2.50;99.90
27544;DHT22;17996;51.056;3.656;2024-01-10T05:40:37;-2.50;99.90
27544;DHT22;17996;51.056;3.656;2024-01-10T05:43:03;-2.50;99.90
27544;DHT22;17996;51.056;3.656;2024-01-10T05:45:29;-2.50;99.90
27544;DHT22;17996;51.056;3.656;2024-01-10T05:47:56;-2.50;99.90
27544;DHT22;17996;51.056;3.656;2024-01-10T05:50:21;-2.50;99.90
27544;DHT22;17996;51.056;3.656;2024-01-10T05:52:47;-2.50;99.90
27544;DHT22;17996;51.056;3.656;2024-01-10T05:55:13;-2.50;99.90
27544;DHT22;17996;51.056;3.656;2024-01-10T05:57:39;-2.50;99.90
27544;DHT22;17996;51.056;3.656;2024-01-10T06:00:06;-2.50;99.90
27544;DHT22;17996;51.056;3.656;2024-01-10T06:02:41;-2.50;99.90
27544;DHT22;17996;51.056;3.656;2024-01-10T06:05:08;-2.60;99.90
27544;DHT22;17996;51.056;3.656;2024-01-10T06:07:38;-2.60;99.90
27544;DHT22;17996;51.056;3.656;2024-01-10T06:10:05;-2.60;99.90
27544;DHT22;17996;51.056;3.656;2024-01-10T06:12:31;-2.60;99.90
27544;DHT22;17996;51.056;3.656;2024-01-10T06:14:56;-2.60;99.90
27544;DHT22;17996;51.056;3.656;2024-01-10T06:17:23;-2.60;99.90
27544;DHT22;17996;51.056;3.656;2024-01-10T06:19:49;-2.70;99.90
27544;DHT22;17996;51.056;3.656;2024-01-10T06:22:16;-2.70;99.90
27544;DHT22;17996;51.056;3.656;2024-01-10T06:24:43;-2.60;99.90
27544;DHT22;17996;51.056;3.656;2024-01-10T06:27:08;-2.60;99.90
27544;DHT22;17996;51.056;3.656;2024-01-10T06:29:35;-2.60;99.90
27544;DHT22;17996;51.056;3.656;2024-01-10T06:32:03;-2.60;99.90
27544;DHT22;17996;51.056;3.656;2024-01-10T06:34:29;-2.60;99.90
27544;DHT22;17996;51.056;3.656;2024-01-10T06:36:55;-2.60;99.90
27544;DHT22;17996;51.056;3.656;2024-01-10T06:39:20;-2.60;99.90
27544;DHT22;17996;51.056;3.656;2024-01-10T06:41:47;-2.70;99.90
27544;DHT22;17996;51.056;3.656;2024-01-10T06:44:13;-2.70;99.90
27544;DHT22;17996;51.056;3.656;2024-01-10T06:46:39;-2.70;99.90
27544;DHT22;17996;51.056;3.656;2024-01-10T06:49:04;-2.80;99.90
27544;DHT22;17996;51.056;3.656;2024-01-10T06:51:31;-2.80;99.90
27544;DHT22;17996;51.056;3.656;2024-01-10T06:53:57;-2.70;99.90
27544;DHT22;17996;51.056;3.656;2024-01-10T06:56:29;-2.70;99.90
27544;DHT22;17996;51.056;3.656;2024-01-10T06:58:56;-2.70;99.90
27544;DHT22;17996;51.056;3.656;2024-01-10T07:01:22;-2.70;99.90
27544;DHT22;17996;51.056;3.656;2024-01-10T07:03:48;-2.80;99.90
27544;DHT22;17996;51.056;3.656;2024-01-10T07:06:14;-2.80;99.90
27544;DHT22;17996;51.056;3.656;2024-01-10T07:08:41;-2.80;99.90
27544;DHT22;17996;51.056;3.656;2024-01-10T07:11:08;-2.80;99.90
27544;DHT22;17996;51.056;3.656;2024-01-10T07:13:34;-2.70;99.90
27544;DHT22;17996;51.056;3.656;2024-01-10T07:16:00;-2.70;99.90
27544;DHT22;17996;51.056;3.656;2024-01-10T07:18:28;-2.80;99.90
27544;DHT22;17996;51.056;3.656;2024-01-10T07:20:54;-2.70;99.90
27544;DHT22;17996;51.056;3.656;2024-01-10T07:23:20;-2.70;99.90
27544;DHT22;17996;51.056;3.656;2024-01-10T07:25:47;-2.80;99.90
27544;DHT22;17996;51.056;3.656;2024-01-10T07:28:13;-2.70;99.90
27544;DHT22;17996;51.056;3.656;2024-01-10T07:30:39;-2.80;99.90
27544;DHT22;17996;51.056;3.656;2024-01-10T07:33:04;-2.70;99.90
27544;DHT22;17996;51.056;3.656;2024-01-10T07:35:30;-2.80;99.90
27544;DHT22;17996;51.056;3.656;2024-01-10T07:37:56;-2.80;99.90
27544;DHT22;17996;51.056;3.656;2024-01-10T07:40:22;-2.70;99.90
27544;DHT22;17996;51.056;3.656;2024-01-10T07:42:48;-2.80;99.90
27544;DHT22;17996;51.056;3.656;2024-01-10T07:45:14;-2.70;99.90
27544;DHT22;17996;51.056;3.656;2024-01-10T07:47:39;-2.70;99.90
27544;DHT22;17996;51.056;3.656;2024-01-10T07:50:06;-2.70;99.90
27544;DHT22;17996;51.056;3.656;2024-01-10T07:52:32;-2.80;99.90
27544;DHT22;17996;51.056;3.656;2024-01-10T07:54:58;-2.80;99.90
27544;DHT22;17996;51.056;3.656;2024-01-10T07:57:24;-2.80;99.90
27544;DHT22;17996;51.056;3.656;2024-01-10T07:59:50;-2.80;99.90
27544;DHT22;17996;51.056;3.656;2024-01-10T08:02:16;-2.80;99.90
27544;DHT22;17996;51.056;3.656;2024-01-10T08:04:42;-2.70;99.90
27544;DHT22;17996;51.056;3.656;2024-01-10T08:07:08;-2.70;99.90
27544;DHT22;17996;51.056;3.656;2024-01-10T08:09:34;-2.70;99.90
27544;DHT22;17996;51.056;3.656;2024-01-10T08:12:00;-2.70;99.90
27544;DHT22;17996;51.056;3.656;2024-01-10T08:14:26;-2.60;99.90
27544;DHT22;17996;51.056;3.656;2024-01-10T08:16:52;-2.60;99.90
27544;DHT22;17996;51.056;3.656;2024-01-10T08:19:24;-2.60;99.90
27544;DHT22;17996;51.056;3.656;2024-01-10T08:21:53;-2.50;99.90
27544;DHT22;17996;51.056;3.656;2024-01-10T08:24:20;-2.60;99.90
27544;DHT22;17996;51.056;3.656;2024-01-10T08:26:47;-2.50;99.90
27544;DHT22;17996;51.056;3.656;2024-01-10T08:29:20;-2.50;99.90
27544;DHT22;17996;51.056;3.656;2024-01-10T08:31:47;-2.50;99.90
27544;DHT22;17996;51.056;3.656;2024-01-10T08:34:13;-2.50;99.90
27544;DHT22;17996;51.056;3.656;2024-01-10T08:36:39;-2.50;99.90
27544;DHT22;17996;51.056;3.656;2024-01-10T08:39:05;-2.50;99.90
27544;DHT22;17996;51.056;3.656;2024-01-10T08:41:32;-2.50;99.90
27544;DHT22;17996;51.056;3.656;2024-01-10T08:43:58;-2.40;99.90
27544;DHT22;17996;51.056;3.656;2024-01-10T08:46:25;-2.40;99.90
27544;DHT22;17996;51.056;3.656;2024-01-10T08:48:51;-2.40;99.90
27544;DHT22;17996;51.056;3.656;2024-01-10T08:51:17;-2.30;99.90
27544;DHT22;17996;51.056;3.656;2024-01-10T08:53:43;-2.30;99.90
27544;DHT22;17996;51.056;3.656;2024-01-10T08:56:10;-2.30;99.90
27544;DHT22;17996;51.056;3.656;2024-01-10T08:58:36;-2.30;99.90
27544;DHT22;17996;51.056;3.656;2024-01-10T09:01:02;-2.30;99.90
27544;DHT22;17996;51.056;3.656;2024-01-10T09:03:29;-2.30;99.90
27544;DHT22;17996;51.056;3.656;2024-01-10T09:05:55;-2.30;99.90
27544;DHT22;17996;51.056;3.656;2024-01-10T09:08:22;-2.20;99.90
27544;DHT22;17996;51.056;3.656;2024-01-10T09:10:47;-2.20;99.90
27544;DHT22;17996;51.056;3.656;2024-01-10T09:13:15;-2.20;99.90
27544;DHT22;17996;51.056;3.656;2024-01-10T09:15:41;-2.20;99.90
27544;DHT22;17996;51.056;3.656;2024-01-10T09:18:06;-2.10;99.90
27544;DHT22;17996;51.056;3.656;2024-01-10T09:20:32;-2.20;99.90
27544;DHT22;17996;51.056;3.656;2024-01-10T09:22:58;-2.10;99.90
27544;DHT22;17996;51.056;3.656;2024-01-10T09:25:26;-2.10;99.90
27544;DHT22;17996;51.056;3.656;2024-01-10T09:27:51;-2.10;99.90
27544;DHT22;17996;51.056;3.656;2024-01-10T09:30:17;-2.10;99.90
27544;DHT22;17996;51.056;3.656;2024-01-10T09:32:44;-2.00;99.90
27544;DHT22;17996;51.056;3.656;2024-01-10T09:35:10;-2.00;99.90
27544;DHT22;17996;51.056;3.656;2024-01-10T09:37:37;-2.00;99.90
27544;DHT22;17996;51.056;3.656;2024-01-10T09:40:04;-1.90;99.90
27544;DHT22;17996;51.056;3.656;2024-01-10T09:42:31;-1.90;99.90
27544;DHT22;17996;51.056;3.656;2024-01-10T09:44:58;-1.90;99.90
27544;DHT22;17996;51.056;3.656;2024-01-10T09:47:25;-1.90;99.90
27544;DHT22;17996;51.056;3.656;2024-01-10T09:49:51;-1.90;99.90
27544;DHT22;17996;51.056;3.656;2024-01-10T09:52:53;-1.90;99.90
27544;DHT22;17996;51.056;3.656;2024-01-10T09:55:23;-1.90;99.90
27544;DHT22;17996;51.056;3.656;2024-01-10T09:57:49;-1.80;99.90
27544;DHT22;17996;51.056;3.656;2024-01-10T10:00:16;-1.80;99.90
27544;DHT22;17996;51.056;3.656;2024-01-10T10:02:42;-1.80;99.90
27544;DHT22;17996;51.056;3.656;2024-01-10T10:05:15;-1.80;99.90
27544;DHT22;17996;51.056;3.656;2024-01-10T10:07:48;-1.70;99.90
27544;DHT22;17996;51.056;3.656;2024-01-10T10:10:15;-1.70;99.90
27544;DHT22;17996;51.056;3.656;2024-01-10T10:12:50;-1.70;99.90
27544;DHT22;17996;51.056;3.656;2024-01-10T10:15:19;-1.60;99.90
27544;DHT22;17996;51.056;3.656;2024-01-10T10:17:47;-1.60;99.90
27544;DHT22;17996;51.056;3.656;2024-01-10T10:20:24;-1.60;99.90
27544;DHT22;17996;51.056;3.656;2024-01-10T10:23:11;-1.60;99.90
27544;DHT22;17996;51.056;3.656;2024-01-10T10:25:47;-1.50;99.90
27544;DHT22;17996;51.056;3.656;2024-01-10T10:28:13;-1.50;99.90
27544;DHT22;17996;51.056;3.656;2024-01-10T10:30:40;-1.40;99.90
27544;DHT22;17996;51.056;3.656;2024-01-10T10:33:06;-1.40;99.90
27544;DHT22;17996;51.056;3.656;2024-01-10T10:35:34;-1.40;99.90
27544;DHT22;17996;51.056;3.656;2024-01-10T10:38:00;-1.40;99.90
27544;DHT22;17996;51.056;3.656;2024-01-10T10:40:26;-1.40;99.90
27544;DHT22;17996;51.056;3.656;2024-01-10T10:42:56;-1.30;99.90
27544;DHT22;17996;51.056;3.656;2024-01-10T10:45:24;-1.30;99.90
27544;DHT22;17996;51.056;3.656;2024-01-10T10:48:00;-1.30;99.90
27544;DHT22;17996;51.056;3.656;2024-01-10T10:50:30;-1.20;99.90
27544;DHT22;17996;51.056;3.656;2024-01-10T10:52:59;-1.20;99.90
27544;DHT22;17996;51.056;3.656;2024-01-10T10:55:26;-1.10;99.90
27544;DHT22;17996;51.056;3.656;2024-01-10T10:57:53;-1.10;99.90
27544;DHT22;17996;51.056;3.656;2024-01-10T11:00:21;-1.10;99.90
27544;DHT22;17996;51.056;3.656;2024-01-10T11:02:53;-1.10;99.90
27544;DHT22;17996;51.056;3.656;2024-01-10T11:05:20;-1.00;99.90
27544;DHT22;17996;51.056;3.656;2024-01-10T11:07:47;-1.00;99.90
27544;DHT22;17996;51.056;3.656;2024-01-10T11:10:25;-0.90;99.90
27544;DHT22;17996;51.056;3.656;2024-01-10T11:16:08;-0.80;99.90
27544;DHT22;17996;51.056;3.656;2024-01-10T11:24:17;-0.80;99.90
27544;DHT22;17996;51.056;3.656;2024-01-10T11:26:45;-0.80;99.90
27544;DHT22;17996;51.056;3.656;2024-01-10T11:29:11;-0.70;99.90
27544;DHT22;17996;51.056;3.656;2024-01-10T11:31:39;-0.80;99.90
27544;DHT22;17996;51.056;3.656;2024-01-10T11:34:04;-0.70;99.90
27544;DHT22;17996;51.056;3.656;2024-01-10T11:36:30;-0.70;99.90
27544;DHT22;17996;51.056;3.656;2024-01-10T11:39:03;-0.70;99.90
27544;DHT22;17996;51.056;3.656;2024-01-10T11:41:30;-0.60;99.90
27544;DHT22;17996;51.056;3.656;2024-01-10T11:46:42;-0.50;99.90
27544;DHT22;17996;51.056;3.656;2024-01-10T11:49:11;-0.40;99.90
27544;DHT22;17996;51.056;3.656;2024-01-10T11:51:41;-0.40;99.90
27544;DHT22;17996;51.056;3.656;2024-01-10T11:54:07;-0.40;99.90
27544;DHT22;17996;51.056;3.656;2024-01-10T11:56:41;-0.40;99.90
27544;DHT22;17996;51.056;3.656;2024-01-10T11:59:09;-0.30;99.90
27544;DHT22;17996;51.056;3.656;2024-01-10T12:01:38;-0.30;99.90
27544;DHT22;17996;51.056;3.656;2024-01-10T12:04:04;-0.30;99.90
27544;DHT22;17996;51.056;3.656;2024-01-10T12:06:39;-0.30;99.90
27544;DHT22;17996;51.056;3.656;2024-01-10T12:09:05;-0.20;99.90
27544;DHT22;17996;51.056;3.656;2024-01-10T12:11:34;-0.20;99.90
27544;DHT22;17996;51.056;3.656;2024-01-10T12:14:01;-0.20;99.90
27544;DHT22;17996;51.056;3.656;2024-01-10T12:16:27;-0.20;99.90
27544;DHT22;17996;51.056;3.656;2024-01-10T12:18:54;-0.20;99.90
27544;DHT22;17996;51.056;3.656;2024-01-10T12:21:20;-0.20;99.90
27544;DHT22;17996;51.056;3.656;2024-01-10T12:23:47;-0.20;99.90
27544;DHT22;17996;51.056;3.656;2024-01-10T12:26:14;-0.10;99.90
27544;DHT22;17996;51.056;3.656;2024-01-10T12:28:40;-0.10;99.90
27544;DHT22;17996;51.056;3.656;2024-01-10T12:31:18;0.00;99.90
27544;DHT22;17996;51.056;3.656;2024-01-10T12:33:44;0.00;99.90
27544;DHT22;17996;51.056;3.656;2024-01-10T12:36:10;0.00;99.90
27544;DHT22;17996;51.056;3.656;2024-01-10T12:38:38;0.10;99.90
27544;DHT22;17996;51.056;3.656;2024-01-10T12:41:04;0.10;99.90
27544;DHT22;17996;51.056;3.656;2024-01-10T12:43:31;0.10;99.90
27544;DHT22;17996;51.056;3.656;2024-01-10T12:46:07;0.20;99.90
27544;DHT22;17996;51.056;3.656;2024-01-10T12:48:34;0.20;99.90
27544;DHT22;17996;51.056;3.656;2024-01-10T12:51:06;0.20;99.90
27544;DHT22;17996;51.056;3.656;2024-01-10T12:53:34;0.20;99.90
27544;DHT22;17996;51.056;3.656;2024-01-10T12:56:00;0.20;99.90
27544;DHT22;17996;51.056;3.656;2024-01-10T12:58:27;0.20;99.90
27544;DHT22;17996;51.056;3.656;2024-01-10T13:00:53;0.20;99.90
27544;DHT22;17996;51.056;3.656;2024-01-10T13:03:18;0.30;99.90
27544;DHT22;17996;51.056;3.656;2024-01-10T13:05:44;0.30;99.90
27544;DHT22;17996;51.056;3.656;2024-01-10T13:08:10;0.30;99.90
27544;DHT22;17996;51.056;3.656;2024-01-10T13:10:38;0.30;99.90
27544;DHT22;17996;51.056;3.656;2024-01-10T13:13:04;0.30;99.90
27544;DHT22;17996;51.056;3.656;2024-01-10T13:15:29;0.40;99.90
27544;DHT22;17996;51.056;3.656;2024-01-10T13:17:56;0.40;99.90
27544;DHT22;17996;51.056;3.656;2024-01-10T13:20:23;0.40;99.90
27544;DHT22;17996;51.056;3.656;2024-01-10T13:22:50;0.40;99.90
27544;DHT22;17996;51.056;3.656;2024-01-10T13:25:16;0.40;99.90
27544;DHT22;17996;51.056;3.656;2024-01-10T13:27:42;0.50;99.90
27544;DHT22;17996;51.056;3.656;2024-01-10T13:30:08;0.50;99.90
27544;DHT22;17996;51.056;3.656;2024-01-10T13:32:37;0.50;99.90
27544;DHT22;17996;51.056;3.656;2024-01-10T13:35:06;0.50;99.90
27544;DHT22;17996;51.056;3.656;2024-01-10T13:37:32;0.50;99.90
27544;DHT22;17996;51.056;3.656;2024-01-10T13:39:58;0.50;99.90
27544;DHT22;17996;51.056;3.656;2024-01-10T13:42:25;0.50;99.90
27544;DHT22;17996;51.056;3.656;2024-01-10T13:44:50;0.50;99.90
27544;DHT22;17996;51.056;3.656;2024-01-10T13:47:20;0.40;99.90
27544;DHT22;17996;51.056;3.656;2024-01-10T13:49:49;0.50;99.90
27544;DHT22;17996;51.056;3.656;2024-01-10T13:52:15;0.50;99.90
27544;DHT22;17996;51.056;3.656;2024-01-10T13:54:41;0.50;99.90
27544;DHT22;17996;51.056;3.656;2024-01-10T13:57:08;0.60;99.90
27544;DHT22;17996;51.056;3.656;2024-01-10T13:59:33;0.60;99.90
27544;DHT22;17996;51.056;3.656;2024-01-10T14:01:59;0.60;99.90
27544;DHT22;17996;51.056;3.656;2024-01-10T14:04:25;0.60;99.90
27544;DHT22;17996;51.056;3.656;2024-01-10T14:06:51;0.70;99.90
27544;DHT22;17996;51.056;3.656;2024-01-10T14:09:17;0.70;99.90
27544;DHT22;17996;51.056;3.656;2024-01-10T14:11:43;0.70;99.90
27544;DHT22;17996;51.056;3.656;2024-01-10T14:14:16;0.70;99.90
27544;DHT22;17996;51.056;3.656;2024-01-10T14:16:42;0.70;99.90
27544;DHT22;17996;51.056;3.656;2024-01-10T14:19:07;0.70;99.90
27544;DHT22;17996;51.056;3.656;2024-01-10T14:21:33;0.70;99.90
27544;DHT22;17996;51.056;3.656;2024-01-10T14:23:59;0.80;99.90
27544;DHT22;17996;51.056;3.656;2024-01-10T14:26:25;0.80;99.90
27544;DHT22;17996;51.056;3.656;2024-01-10T14:28:52;0.80;99.90
27544;DHT22;17996;51.056;3.656;2024-01-10T14:31:21;0.70;99.90
27544;DHT22;17996;51.056;3.656;2024-01-10T14:33:47;0.70;99.90
27544;DHT22;17996;51.056;3.656;2024-01-10T14:36:13;0.80;99.90
27544;DHT22;17996;51.056;3.656;2024-01-10T14:38:39;0.80;99.90
27544;DHT22;17996;51.056;3.656;2024-01-10T14:41:06;0.80;99.90
27544;DHT22;17996;51.056;3.656;2024-01-10T14:43:32;0.80;99.90
27544;DHT22;17996;51.056;3.656;2024-01-10T14:45:58;0.70;99.90
27544;DHT22;17996;51.056;3.656;2024-01-10T14:48:24;0.80;99.90
27544;DHT22;17996;51.056;3.656;2024-01-10T14:50:50;0.80;99.90
27544;DHT22;17996;51.056;3.656;2024-01-10T14:53:16;0.80;99.90
27544;DHT22;17996;51.056;3.656;2024-01-10T14:55:42;0.80;99.90
27544;DHT22;17996;51.056;3.656;2024-01-10T14:58:07;0.80;99.90
27544;DHT22;17996;51.056;3.656;2024-01-10T15:00:33;0.80;99.90
27544;DHT22;17996;51.056;3.656;2024-01-10T15:02:59;0.80;99.90
27544;DHT22;17996;51.056;3.656;2024-01-10T15:05:24;0.80;99.90
27544;DHT22;17996;51.056;3.656;2024-01-10T15:07:52;0.80;99.90
27544;DHT22;17996;51.056;3.656;2024-01-10T15:10:18;0.80;99.90
27544;DHT22;17996;51.056;3.656;2024-01-10T15:12:43;0.80;99.90
27544;DHT22;17996;51.056;3.656;2024-01-10T15:15:10;0.80;99.90
27544;DHT22;17996;51.056;3.656;2024-01-10T15:17:36;0.80;99.90
27544;DHT22;17996;51.056;3.656;2024-01-10T15:20:03;0.80;99.90
27544;DHT22;17996;51.056;3.656;2024-01-10T15:22:29;0.70;99.90
27544;DHT22;17996;51.056;3.656;2024-01-10T15:24:55;0.70;99.90
27544;DHT22;17996;51.056;3.656;2024-01-10T15:27:20;0.60;99.90
27544;DHT22;17996;51.056;3.656;2024-01-10T15:29:46;0.60;99.90
27544;DHT22;17996;51.056;3.656;2024-01-10T15:32:12;0.50;99.90
27544;DHT22;17996;51.056;3.656;2024-01-10T15:34:37;0.60;99.90
27544;DHT22;17996;51.056;3.656;2024-01-10T15:37:04;0.50;99.90
27544;DHT22;17996;51.056;3.656;2024-01-10T15:39:29;0.50;99.90
27544;DHT22;17996;51.056;3.656;2024-01-10T15:41:55;0.50;99.90
27544;DHT22;17996;51.056;3.656;2024-01-10T15:44:21;0.40;99.90